Nearby METAR Reports

 

KICL - Clarinda, Iowa, USA
Distance from station: N 49mi, 79km
Updated: Thu, 23-Sep-2021 2:55pm CDT
Clear
Clear
 Wind from S
Wind: S 9 mph , 15 km/h
Temperature: 79°F , 26°C
Dew Point: 41°F , 5°C
Humidity: 26%
Barometer: 30.01 inHg , 1016.3 hPa
Clouds: Clear
Visibility: 10 miles , 16 km
2021/09/23 19:55 KICL 231955Z AUTO 18008KT 10SM CLR 26/05 A3001 RMK AO2
KDSM - Des Moines, Iowa, USA
Distance from station: NNE 122mi, 196km
Updated: Thu, 23-Sep-2021 2:54pm CDT
Clear
Clear
 Wind from W
Wind: W 5 mph , 7 km/h
Temperature: 73°F , 23°C
Dew Point: 39°F , 4°C
Humidity: 29%
Barometer: 30.01 inHg , 1016.3 hPa
Clouds: Clear
Visibility: 10 miles , 16 km
2021/09/23 19:54 KDSM 231954Z 27004KT 10SM CLR 23/04 A3001 RMK AO2 SLP161 T02330044
KFNB - Falls City, Nebraska, USA
Distance from station: W 50mi, 80km
Updated: Thu, 23-Sep-2021 2:53pm CDT
Clear
Clear
 Wind from S
Wind: S 13 mph , 20 km/h, Gust: 20 mph , 31 km/h
Temperature: 81°F , 27°C
Dew Point: 43°F , 6°C
Humidity: 26%
Barometer: 29.98 inHg , 1015.2 hPa
Clouds: Clear
Visibility: 10 miles , 16 km
2021/09/23 19:53 KFNB 231953Z AUTO 19011G17KT 160V220 10SM CLR 27/06 A2998 RMK AO2 SLP150 T02670056
 
KMCI - Kansas City, Missouri, USA
Distance from station: S 65mi, 104km
Updated: Thu, 23-Sep-2021 2:53pm CDT
Clear
Clear
 Wind from S
Wind: S 10 mph , 17 km/h
Temperature: 75°F , 24°C
Dew Point: 45°F , 7°C
Humidity: 34%
Barometer: 30.04 inHg , 1017.3 hPa
Clouds: Clear
Visibility: 10 miles , 16 km
2021/09/23 19:53 KMCI 231953Z 17009KT 10SM CLR 24/07 A3004 RMK AO2 SLP169 T02390072
KOMA - Omaha, Nebraska, USA
Distance from station: NNW 105mi, 169km
Updated: Thu, 23-Sep-2021 2:52pm CDT
Few Clouds
Few Clouds
 Wind from SSE
Wind: SSE 16 mph , 26 km/h, Gust: 24 mph , 39 km/h
Temperature: 79°F , 26°C
Dew Point: 45°F , 7°C
Humidity: 30%
Barometer: 29.96 inHg , 1014.6 hPa
Clouds: Few Clouds
Visibility: 10 miles , 16 km
Cloud details: Few Clouds 25000 ft
2021/09/23 19:52 KOMA 231952Z 15014G21KT 10SM FEW250 26/07 A2996 RMK AO2 SLP140 T02610067
KRDK - Red Oak, Iowa, USA
Distance from station: N 70mi, 112km
Updated: Thu, 23-Sep-2021 2:55pm CDT
Clear
Clear
 Wind from S
Wind: S 10 mph , 17 km/h, Gust: 20 mph , 31 km/h
Temperature: 77°F , 25°C
Dew Point: 43°F , 6°C
Humidity: 30%
Barometer: 29.99 inHg , 1015.6 hPa
Clouds: Clear
Visibility: 10 miles , 16 km
2021/09/23 19:55 KRDK 231955Z AUTO 18009G17KT 140V210 10SM CLR 25/06 A2999 RMK AO2
 
KSTJ - Saint Joseph, Missouri, USA
Distance from station: SW 23mi, 37km
Updated: Thu, 23-Sep-2021 2:53pm CDT
Clear
Clear
 Wind from S
Wind: S 7 mph , 11 km/h, Gust: 17 mph , 28 km/h
Temperature: 79°F , 26°C
Dew Point: 46°F , 8°C
Humidity: 32%
Barometer: 30.02 inHg , 1016.6 hPa
Clouds: Clear
Visibility: 10 miles , 16 km
2021/09/23 19:53 KSTJ 231953Z 19006G15KT 10SM CLR 26/08 A3002 RMK AO2 SLP163 T02560078
KTOP - Topeka, Kansas, USA
Distance from station: SW 85mi, 137km
Updated: Thu, 23-Sep-2021 2:53pm CDT
Clear
Clear
 Wind from SSE
Wind: SSE 14 mph , 22 km/h, Gust: 25 mph , 41 km/h
Temperature: 81°F , 27°C
Dew Point: 46°F , 8°C
Humidity: 30%
Barometer: 30.01 inHg , 1016.3 hPa
Clouds: Clear
Visibility: 10 miles , 16 km
2021/09/23 19:53 KTOP 231953Z 15012G22KT 10SM CLR 27/08 A3001 RMK AO2 SLP159 T02670078
KICT - Wichita, Kansas, USA
Distance from station: SW 215mi, 346km
Updated: Thu, 23-Sep-2021 2:53pm CDT
Few Clouds
Few Clouds
 Wind from S
Wind: S 18 mph , 30 km/h, Gust: 26 mph , 43 km/h
Temperature: 84°F , 29°C
Dew Point: 43°F , 6°C
Humidity: 23%
Barometer: 30.00 inHg , 1015.9 hPa
Clouds: Few Clouds
Visibility: 10 miles , 16 km
Cloud details: Few Clouds 20000 ft
2021/09/23 19:53 KICT 231953Z 18016G23KT 10SM FEW200 29/06 A3000 RMK AO2 SLP148 T02890061